Time;durP1;ratioP1;P1;durP2;ratioP2;P2;SDS_P1;SDS_P2;PMS_P1;PMS_P2;Temp;Humidity;BMP_temperature;BMP_pressure;BME280_temperature;BME280_humidity;BME280_pressure;Samples;Min_cycle;Max_cycle;Signal;HPM_P1;HPM_P2
2022/05/06 00:00:01;;;;;;;9.4;11.4;;;;;;;-133;100;65250;;;;
2022/05/06 00:11:01;;;;;;;10;14.1;;;;;;;-133;100;65240;;;;
2022/05/06 00:21:01;;;;;;;10;14.1;;;;;;;-133;100;65250;;;;
2022/05/06 00:31:01;;;;;;;8.6;10.4;;;;;;;-133;100;65240;;;;
2022/05/06 00:42:01;;;;;;;8.6;10.4;;;;;;;-133;100;65250;;;;
2022/05/06 00:52:03;;;;;;;8.6;10.4;;;;;;;-133;100;65240;;;;
2022/05/06 01:03:01;;;;;;;9.6;14.1;;;;;;;-133;100;65250;;;;
2022/05/06 01:23:01;;;;;;;9.6;14.1;;;;;;;-133;100;65250;;;;
2022/05/06 01:33:01;;;;;;;9.6;12.3;;;;;;;-133;100;65250;;;;
2022/05/06 01:44:02;;;;;;;9.6;12.3;;;;;;;-133;100;65240;;;;
2022/05/06 01:55:01;;;;;;;9.6;12.3;;;;;;;-133;100;65240;;;;
2022/05/06 02:05:17;;;;;;;9.3;11.3;;;;;;;-133;100;65240;;;;
2022/05/06 02:15:02;;;;;;;9.3;11.3;;;;;;;-133;100;65240;;;;
2022/05/06 02:26:01;;;;;;;9.3;11.3;;;;;;;-133;100;65240;;;;
2022/05/06 02:36:02;;;;;;;9.8;11.9;;;;;;;-133;100;65240;;;;
2022/05/06 02:47:01;;;;;;;9.8;11.9;;;;;;;-133;100;65240;;;;
2022/05/06 02:57:02;;;;;;;9.8;11.9;;;;;;;-133;100;65240;;;;
2022/05/06 03:08:01;;;;;;;11.2;13;;;;;;;-133;100;65240;;;;
2022/05/06 03:18:01;;;;;;;11.2;13;;;;;;;-133;100;65240;;;;
2022/05/06 03:28:03;;;;;;;11.2;13;;;;;;;-133;100;65240;;;;
2022/05/06 03:38:01;;;;;;;12.1;16.3;;;;;;;-133;100;65230;;;;
2022/05/06 03:49:01;;;;;;;12.1;16.3;;;;;;;-133;100;65240;;;;
2022/05/06 03:59:01;;;;;;;12.1;16.3;;;;;;;-133;100;65230;;;;
2022/05/06 04:10:01;;;;;;;12.1;14.8;;;;;;;-133;100;65230;;;;
2022/05/06 04:30:01;;;;;;;13.3;15.2;;;;;;;-133;100;65230;;;;
2022/05/06 04:41:02;;;;;;;13.3;15.2;;;;;;;-133;100;65230;;;;
2022/05/06 04:51:01;;;;;;;13.3;15.2;;;;;;;-133;100;65230;;;;
2022/05/06 05:02:01;;;;;;;13.3;15;;;;;;;-133;100;65230;;;;
2022/05/06 05:12:01;;;;;;;13.3;15;;;;;;;-133;100;65230;;;;
2022/05/06 05:23:01;;;;;;;13.3;15;;;;;;;-133;100;65230;;;;
2022/05/06 05:33:01;;;;;;;15.1;16.9;;;;;;;-133;100;65230;;;;
2022/05/06 05:55:01;;;;;;;15.1;16.9;;;;;;;-133;100;65220;;;;
2022/05/06 06:06:01;;;;;;;17.8;21;;;;;;;-133;98.4;65220;;;;
2022/05/06 06:17:02;;;;;;;17.8;21;;;;;;;-133;96.8;65220;;;;
2022/05/06 06:28:01;;;;;;;17.8;21;;;;;;;-133;95.3;65220;;;;
2022/05/06 06:38:01;;;;;;;15.8;17.8;;;;;;;-133;93.2;65220;;;;
2022/05/06 06:49:01;;;;;;;15.8;17.8;;;;;;;-133;92.5;65220;;;;
2022/05/06 06:59:01;;;;;;;15.8;17.8;;;;;;;-133;91.8;65220;;;;
2022/05/06 07:20:01;;;;;;;12.5;15;;;;;;;-133;87.7;65220;;;;
2022/05/06 07:30:01;;;;;;;11.3;14.1;;;;;;;-133;86.1;65210;;;;
2022/05/06 07:40:01;;;;;;;11.3;14.1;;;;;;;-133;84.8;65210;;;;
2022/05/06 07:51:01;;;;;;;11.3;14.1;;;;;;;-133;85;65210;;;;
2022/05/06 08:01:01;;;;;;;15.5;17.8;;;;;;;-133;85.8;65210;;;;
2022/05/06 08:11:01;;;;;;;15.5;17.8;;;;;;;-133;85;65220;;;;
2022/05/06 08:22:01;;;;;;;15.5;17.8;;;;;;;-133;86.4;65220;;;;
2022/05/06 08:33:01;;;;;;;74.4;210.1;;;;;;;-133;86;65220;;;;
2022/05/06 08:50:50;;;;;;;74.4;210.1;;;;;;;-133;84.5;65220;;;;
2022/05/06 08:54:01;;;;;;;74.4;210.1;;;;;;;-133;84.9;65210;;;;
2022/05/06 09:04:01;;;;;;;18;22.5;;;;;;;-133;83.5;65220;;;;
2022/05/06 09:25:01;;;;;;;18;22.5;;;;;;;-133;79.7;65210;;;;
2022/05/06 09:36:01;;;;;;;21.2;24.3;;;;;;;-133;78;65210;;;;
2022/05/06 09:46:01;;;;;;;21.2;24.3;;;;;;;-133;76.2;65210;;;;
2022/05/06 09:56:06;;;;;;;21.2;24.3;;;;;;;-133;76.3;65210;;;;
2022/05/06 10:06:02;;;;;;;21.6;24.2;;;;;;;-133;76.7;65210;;;;
2022/05/06 10:16:01;;;;;;;21.6;24.2;;;;;;;-133;76.9;65210;;;;
2022/05/06 10:26:01;;;;;;;;;;;;;;;-133;78.8;65210;;;;
2022/05/06 10:37:02;;;;;;;21.6;24.1;;;;;;;-133;77.5;65210;;;;
2022/05/06 10:47:01;;;;;;;21.6;24.1;;;;;;;-133;75.4;65220;;;;
2022/05/06 10:57:01;;;;;;;21.6;24.1;;;;;;;-133;73.7;65210;;;;
2022/05/06 11:08:01;;;;;;;29.2;32.5;;;;;;;-133;71;65210;;;;
2022/05/06 11:19:04;;;;;;;29.2;32.5;;;;;;;-133;68.5;65210;;;;
2022/05/06 11:29:02;;;;;;;29.2;32.5;;;;;;;-133;67.1;65210;;;;
2022/05/06 11:40:18;;;;;;;17.2;20.2;;;;;;;-133;66.7;65210;;;;
2022/05/06 11:50:01;;;;;;;17.2;20.2;;;;;;;-133;66.2;65210;;;;
2022/05/06 12:00:02;;;;;;;15;18.2;;;;;;;-133;65.4;65210;;;;
2022/05/06 12:11:01;;;;;;;15;18.2;;;;;;;-133;66.6;65210;;;;
2022/05/06 12:21:01;;;;;;;15;18.2;;;;;;;-133;67.1;65210;;;;
2022/05/06 12:32:01;;;;;;;17.5;20.9;;;;;;;-133;67.7;65210;;;;
2022/05/06 12:42:01;;;;;;;17.5;20.9;;;;;;;-133;66.7;65210;;;;
2022/05/06 12:53:01;;;;;;;17.5;20.9;;;;;;;-133;67;65210;;;;
2022/05/06 13:03:02;;;;;;;17.6;20.2;;;;;;;-133;67.7;65210;;;;
2022/05/06 13:14:01;;;;;;;17.6;20.2;;;;;;;-133;67;65200;;;;
2022/05/06 13:25:02;;;;;;;17.6;20.2;;;;;;;-133;66;65210;;;;
2022/05/06 13:35:01;;;;;;;21.1;24.4;;;;;;;-133;64.9;65200;;;;
2022/05/06 13:45:01;;;;;;;21.1;24.4;;;;;;;-133;66.1;65210;;;;
2022/05/06 14:06:01;;;;;;;21.9;28.1;;;;;;;-133;64.3;65200;;;;
2022/05/06 14:16:01;;;;;;;21.9;28.1;;;;;;;-133;66.2;65210;;;;
2022/05/06 14:27:01;;;;;;;21.9;28.1;;;;;;;-133;66.5;65210;;;;
2022/05/06 14:37:01;;;;;;;21.6;25;;;;;;;-133;68.6;65200;;;;
2022/05/06 14:47:02;;;;;;;21.6;25;;;;;;;-133;65.5;65210;;;;
2022/05/06 14:58:01;;;;;;;21.6;25;;;;;;;-133;64;65210;;;;
2022/05/06 15:09:01;;;;;;;15.8;19.5;;;;;;;-133;63.5;65210;;;;
2022/05/06 15:20:01;;;;;;;15.8;19.5;;;;;;;-133;63.4;65210;;;;
2022/05/06 15:30:01;;;;;;;13;17.6;;;;;;;-133;63.3;65210;;;;
2022/05/06 15:40:01;;;;;;;13;17.6;;;;;;;-133;63.5;65210;;;;
2022/05/06 15:51:01;;;;;;;13;17.6;;;;;;;-133;64.9;65210;;;;
2022/05/06 16:02:01;;;;;;;11.4;14.3;;;;;;;-133;66.3;65210;;;;
2022/05/06 16:13:01;;;;;;;11.4;14.3;;;;;;;-133;66.8;65210;;;;
2022/05/06 16:23:01;;;;;;;11.4;14.3;;;;;;;-133;67.9;65210;;;;
2022/05/06 16:33:01;;;;;;;13.9;16.2;;;;;;;-133;69.8;65210;;;;
2022/05/06 16:43:03;;;;;;;13.9;16.2;;;;;;;-133;69.7;65210;;;;
2022/05/06 16:53:01;;;;;;;13.9;16.2;;;;;;;-133;72.7;65210;;;;
2022/05/06 17:03:01;;;;;;;16.9;20.9;;;;;;;-133;74.1;65210;;;;
2022/05/06 17:14:01;;;;;;;16.9;20.9;;;;;;;-133;76.4;65210;;;;
2022/05/06 17:25:01;;;;;;;16.9;20.9;;;;;;;-133;76.6;65210;;;;
2022/05/06 17:35:03;;;;;;;20.2;23;;;;;;;-133;78.6;65210;;;;
2022/05/06 17:45:01;;;;;;;20.2;23;;;;;;;-133;79.8;65210;;;;
2022/05/06 17:55:01;;;;;;;20.2;23;;;;;;;-133;82;65210;;;;
2022/05/06 18:05:02;;;;;;;18.5;20.7;;;;;;;-133;82.4;65210;;;;
2022/05/06 18:16:02;;;;;;;18.5;20.7;;;;;;;-133;82.4;65210;;;;
2022/05/06 18:26:01;;;;;;;18.5;20.7;;;;;;;-133;82.2;65210;;;;
2022/05/06 18:37:01;;;;;;;15.2;18.5;;;;;;;-133;84.4;65210;;;;
2022/05/06 18:48:01;;;;;;;15.2;18.5;;;;;;;-133;85.1;65210;;;;
2022/05/06 18:58:02;;;;;;;15.2;18.5;;;;;;;-133;85.1;65210;;;;
2022/05/06 19:09:01;;;;;;;19.8;22.2;;;;;;;-133;85.5;65210;;;;
2022/05/06 19:19:02;;;;;;;19.8;22.2;;;;;;;-133;86.6;65210;;;;
2022/05/06 19:29:01;;;;;;;19.8;22.2;;;;;;;-133;86.4;65210;;;;
2022/05/06 19:39:01;;;;;;;23.4;26.1;;;;;;;-133;87.3;65210;;;;
2022/05/06 19:49:02;;;;;;;23.4;26.1;;;;;;;-133;87.2;65210;;;;
2022/05/06 20:00:03;;;;;;;25.7;31.7;;;;;;;-133;87.5;65210;;;;
2022/05/06 20:11:01;;;;;;;25.7;31.7;;;;;;;-133;87.8;65210;;;;
2022/05/06 20:21:02;;;;;;;25.7;31.7;;;;;;;-133;89.3;65200;;;;
2022/05/06 20:31:03;;;;;;;25.6;31.9;;;;;;;-133;90.9;65210;;;;
2022/05/06 20:42:01;;;;;;;25.6;31.9;;;;;;;-133;91.7;65210;;;;
2022/05/06 20:52:01;;;;;;;25.6;31.9;;;;;;;-133;90.7;65210;;;;
2022/05/06 21:03:02;;;;;;;27.3;34.2;;;;;;;-133;90.5;65210;;;;
2022/05/06 21:14:02;;;;;;;27.3;34.2;;;;;;;-133;89.8;65210;;;;
2022/05/06 21:24:01;;;;;;;27.3;34.2;;;;;;;-133;89.9;65200;;;;
2022/05/06 21:34:01;;;;;;;30.4;36.1;;;;;;;-133;91.5;65210;;;;
2022/05/06 21:45:01;;;;;;;30.4;36.1;;;;;;;-133;92.5;65200;;;;
2022/05/06 21:55:01;;;;;;;30.4;36.1;;;;;;;-133;91.7;65200;;;;
2022/05/06 22:05:03;;;;;;;31.8;35.4;;;;;;;-133;91.7;65200;;;;
2022/05/06 22:16:02;;;;;;;31.8;35.4;;;;;;;-133;91.5;65210;;;;
2022/05/06 22:26:01;;;;;;;31.8;35.4;;;;;;;-133;91.5;65210;;;;
2022/05/06 22:37:02;;;;;;;28.4;32.6;;;;;;;-133;92.2;65200;;;;
2022/05/06 22:47:02;;;;;;;28.4;32.6;;;;;;;-133;93.2;65200;;;;
2022/05/06 22:57:02;;;;;;;28.4;32.6;;;;;;;-133;93.7;65200;;;;
2022/05/06 23:08:02;;;;;;;33;40.5;;;;;;;-133;94.3;65200;;;;
2022/05/06 23:18:03;;;;;;;33;40.5;;;;;;;-133;95.7;65200;;;;
2022/05/06 23:29:02;;;;;;;35.2;42.2;;;;;;;-133;96;65200;;;;
2022/05/06 23:39:02;;;;;;;35.2;42.2;;;;;;;-133;95.7;65200;;;;
2022/05/06 23:49:02;;;;;;;35.2;42.2;;;;;;;-133;95.7;65200;;;;
